createdAt,value
2023-04-24T00:01:46.044Z,97859.91
2023-04-24T00:04:15.264Z,97861.28
2023-04-24T00:06:43.956Z,97862.00
2023-04-24T00:09:11.993Z,97861.50
2023-04-24T00:11:40.092Z,97856.06
2023-04-24T00:14:07.828Z,97855.44
2023-04-24T00:16:36.816Z,97846.97
2023-04-24T00:19:06.645Z,97841.03
2023-04-24T00:21:34.679Z,97838.88
2023-04-24T00:24:02.541Z,97831.19
2023-04-24T00:26:30.100Z,97838.03
2023-04-24T00:28:57.830Z,97833.63
2023-04-24T00:31:25.636Z,97831.44
2023-04-24T00:33:54.620Z,97835.94
2023-04-24T00:36:22.465Z,97818.75
2023-04-24T00:38:50.164Z,97825.59
2023-04-24T00:41:17.898Z,97813.47
2023-04-24T00:43:46.040Z,97813.38
2023-04-24T00:46:14.664Z,97821.84
2023-04-24T00:48:42.456Z,97827.69
2023-04-24T00:51:11.864Z,97822.03
2023-04-24T00:53:39.666Z,97814.88
2023-04-24T00:56:07.786Z,97809.06
2023-04-24T00:58:35.610Z,97812.81
2023-04-24T01:01:03.713Z,97811.56
2023-04-24T01:03:32.519Z,97810.44
2023-04-24T01:06:00.416Z,97812.56
2023-04-24T01:08:30.597Z,97809.09
2023-04-24T01:10:59.699Z,97811.28
2023-04-24T01:13:27.489Z,97812.47
2023-04-24T01:15:55.084Z,97813.59
2023-04-24T01:18:22.826Z,97811.22
2023-04-24T01:20:51.970Z,97813.66
2023-04-24T01:23:21.072Z,97811.09
2023-04-24T01:25:48.861Z,97824.19
2023-04-24T01:28:16.654Z,97823.44
2023-04-24T01:30:44.628Z,97823.66
2023-04-24T01:33:12.416Z,97827.97
2023-04-24T01:35:40.255Z,97824.72
2023-04-24T01:38:08.054Z,97823.88
2023-04-24T01:40:37.099Z,97830.00
2023-04-24T01:43:04.835Z,97833.88
2023-04-24T01:45:32.400Z,97832.31
2023-04-24T01:48:00.166Z,97839.56
2023-04-24T01:50:28.080Z,97844.28
2023-04-24T01:52:56.613Z,97837.53
2023-04-24T01:55:24.563Z,97834.69
2023-04-24T01:57:54.608Z,97836.03
2023-04-24T02:00:22.225Z,97833.19
2023-04-24T02:02:50.042Z,97840.47
2023-04-24T02:05:17.915Z,97837.53
2023-04-24T02:07:45.805Z,97836.69
2023-04-24T02:10:13.779Z,97839.91
2023-04-24T02:12:41.716Z,97848.56
2023-04-24T02:15:12.045Z,97844.59
2023-04-24T02:17:39.980Z,97849.22
2023-04-24T02:20:09.523Z,97852.59
2023-04-24T02:22:37.447Z,97848.88
2023-04-24T02:25:06.225Z,97855.44
2023-04-24T02:27:35.078Z,97854.13
2023-04-24T02:30:04.060Z,97852.81
2023-04-24T02:32:33.228Z,97867.00
2023-04-24T02:35:01.041Z,97863.69
2023-04-24T02:37:28.673Z,97857.56
2023-04-24T02:39:56.338Z,97857.81
2023-04-24T02:42:23.962Z,97853.88
2023-04-24T02:44:52.488Z,97856.38
2023-04-24T02:47:20.095Z,97861.53
2023-04-24T02:49:49.457Z,97861.53
2023-04-24T02:52:17.911Z,97856.16
2023-04-24T02:54:45.706Z,97846.28
2023-04-24T02:57:13.818Z,97852.41
2023-04-24T02:59:41.798Z,97858.34
2023-04-24T03:02:09.833Z,97867.50
2023-04-24T03:04:37.617Z,97855.13
2023-04-24T03:07:07.016Z,97863.06
2023-04-24T03:09:34.806Z,97869.44
2023-04-24T03:12:02.646Z,97872.94
2023-04-24T03:14:32.245Z,97874.06
2023-04-24T03:17:00.868Z,97874.16
2023-04-24T03:19:28.695Z,97875.00
2023-04-24T03:21:56.302Z,97882.00
2023-04-24T03:24:25.683Z,97881.16
2023-04-24T03:26:53.242Z,97889.25
2023-04-24T03:29:20.824Z,97892.16
2023-04-24T03:31:48.514Z,97898.56
2023-04-24T03:34:16.136Z,97902.44
2023-04-24T03:36:43.682Z,97911.75
2023-04-24T03:39:11.290Z,97913.25
2023-04-24T03:41:40.211Z,97910.41
2023-04-24T03:44:07.832Z,97914.09
2023-04-24T03:46:35.573Z,97910.13
2023-04-24T03:49:03.142Z,97920.75
2023-04-24T03:51:32.536Z,97919.03
2023-04-24T03:54:00.249Z,97920.63
2023-04-24T03:56:27.870Z,97917.59
2023-04-24T03:58:56.790Z,97923.41
2023-04-24T04:01:25.118Z,97932.22
2023-04-24T04:03:52.876Z,97933.03
2023-04-24T04:06:22.384Z,97918.53
2023-04-24T04:08:50.041Z,97929.50
2023-04-24T04:11:17.694Z,97929.41
2023-04-24T04:13:45.367Z,97922.81
2023-04-24T04:16:14.307Z,97932.25
2023-04-24T04:18:41.825Z,97937.94
2023-04-24T04:21:09.378Z,97928.78
2023-04-24T04:23:37.068Z,97932.59
2023-04-24T04:26:05.139Z,97927.78
2023-04-24T04:28:33.310Z,97944.22
2023-04-24T04:31:00.977Z,97944.47
2023-04-24T04:33:30.061Z,97948.53
2023-04-24T04:35:58.455Z,97951.13
2023-04-24T04:38:27.768Z,97945.53
2023-04-24T04:40:57.295Z,97952.91
2023-04-24T04:43:25.057Z,97953.41
2023-04-24T04:45:53.156Z,97956.31
2023-04-24T04:48:20.806Z,97957.47
2023-04-24T04:50:49.799Z,97970.00
2023-04-24T04:53:17.402Z,97960.19
2023-04-24T04:55:44.996Z,97962.81
2023-04-24T04:58:12.881Z,97961.88
2023-04-24T05:00:42.635Z,97957.47
2023-04-24T05:03:20.587Z,97969.34
2023-04-24T05:05:50.495Z,97978.56
2023-04-24T05:08:26.472Z,97982.13
2023-04-24T05:10:55.052Z,97975.44
2023-04-24T05:13:32.153Z,97985.09
2023-04-24T05:16:06.616Z,97981.22
2023-04-24T05:18:34.440Z,97983.97
2023-04-24T05:21:03.454Z,97975.56
2023-04-24T05:23:31.369Z,97988.88
2023-04-24T05:25:59.000Z,97984.47
2023-04-24T05:28:29.515Z,97989.38
2023-04-24T05:30:57.839Z,97984.91
2023-04-24T05:33:25.637Z,97986.50
2023-04-24T05:35:53.224Z,97999.66
2023-04-24T05:38:22.253Z,98005.22
2023-04-24T05:40:49.938Z,98002.75
2023-04-24T05:43:17.649Z,98012.59
2023-04-24T05:45:45.253Z,98017.09
2023-04-24T05:48:12.815Z,98027.34
2023-04-24T05:50:40.940Z,98025.75
2023-04-24T05:53:08.910Z,98034.13
2023-04-24T05:55:38.188Z,98036.84
2023-04-24T05:58:05.814Z,98042.44
2023-04-24T06:00:33.599Z,98038.44
2023-04-24T06:03:01.908Z,98037.34
2023-04-24T06:05:29.972Z,98037.25
2023-04-24T06:07:57.606Z,98051.06
2023-04-24T06:10:25.568Z,98043.69
2023-04-24T06:12:57.104Z,98046.91
2023-04-24T06:15:24.675Z,98051.56
2023-04-24T06:17:52.367Z,98058.31
2023-04-24T06:20:20.167Z,98059.75
2023-04-24T06:22:47.835Z,98051.19
2023-04-24T06:25:15.699Z,98067.69
2023-04-24T06:27:43.328Z,98066.66
2023-04-24T06:30:13.078Z,98062.25
2023-04-24T06:32:40.794Z,98069.59
2023-04-24T06:35:10.760Z,98070.31
2023-04-24T06:37:38.392Z,98068.53
2023-04-24T06:40:08.436Z,98069.56
2023-04-24T06:42:36.797Z,98068.75
2023-04-24T06:45:04.888Z,98073.19
2023-04-24T06:47:34.077Z,98081.19
2023-04-24T06:50:01.681Z,98079.13
2023-04-24T06:52:29.372Z,98084.13
2023-04-24T06:55:02.206Z,98092.03
2023-04-24T06:57:29.839Z,98086.38
2023-04-24T06:59:57.431Z,98093.53
2023-04-24T07:02:25.601Z,98081.56
2023-04-24T07:04:54.853Z,98085.25
2023-04-24T07:07:24.944Z,98086.16
2023-04-24T07:09:53.105Z,98089.66
2023-04-24T07:12:22.656Z,98101.81
2023-04-24T07:14:50.576Z,98090.84
2023-04-24T07:17:18.168Z,98092.03
2023-04-24T07:19:46.477Z,98088.91
2023-04-24T07:22:17.848Z,98096.50
2023-04-24T07:24:45.777Z,98095.84
2023-04-24T07:27:15.781Z,98093.44
2023-04-24T07:29:43.655Z,98091.53
2023-04-24T07:32:11.491Z,98096.03
2023-04-24T07:34:39.020Z,98094.53
2023-04-24T07:37:06.912Z,98102.00
2023-04-24T07:39:35.830Z,98089.66
2023-04-24T07:42:03.507Z,98085.44
2023-04-24T07:44:31.200Z,98088.50
2023-04-24T07:46:58.846Z,98090.75
2023-04-24T07:49:26.563Z,98085.66
2023-04-24T07:51:54.297Z,98082.09
2023-04-24T07:54:22.009Z,98088.38
2023-04-24T07:56:51.600Z,98087.47
2023-04-24T07:59:19.344Z,98079.75
2023-04-24T08:01:47.134Z,98090.38
2023-04-24T08:04:14.957Z,98084.88
2023-04-24T08:06:42.667Z,98084.56
2023-04-24T08:09:10.311Z,98077.78
2023-04-24T08:11:37.943Z,98081.59
2023-04-24T08:14:06.863Z,98080.75
2023-04-24T08:16:35.321Z,98090.25
2023-04-24T08:19:03.053Z,98094.06
2023-04-24T08:21:30.916Z,98100.00
2023-04-24T08:23:58.484Z,98108.75
2023-04-24T08:26:26.298Z,98106.47
2023-04-24T08:28:53.874Z,98120.75
2023-04-24T08:31:24.027Z,98119.09
2023-04-24T08:33:51.642Z,98119.50
2023-04-24T08:36:19.246Z,98125.03
2023-04-24T08:38:47.657Z,98130.63
2023-04-24T08:41:16.489Z,98128.44
2023-04-24T08:43:44.372Z,98133.53
2023-04-24T08:46:12.858Z,98142.63
2023-04-24T08:48:42.049Z,98130.97
2023-04-24T08:51:10.367Z,98143.66
2023-04-24T08:53:38.411Z,98133.72
2023-04-24T08:56:06.409Z,98135.31
2023-04-24T08:58:34.184Z,98134.00
2023-04-24T09:01:02.483Z,98133.13
2023-04-24T09:03:30.736Z,98132.91
2023-04-24T09:06:00.396Z,98147.00
2023-04-24T09:08:28.251Z,98147.78
2023-04-24T09:10:55.945Z,98154.22
2023-04-24T09:13:23.530Z,98143.03
2023-04-24T09:15:51.383Z,98157.31
2023-04-24T09:18:19.065Z,98158.59
2023-04-24T09:21:01.166Z,98155.41
2023-04-24T09:23:30.522Z,98154.34
2023-04-24T09:25:58.969Z,98153.63
2023-04-24T09:28:32.160Z,98165.56
2023-04-24T09:31:08.315Z,98155.72
2023-04-24T09:33:36.568Z,98147.91
2023-04-24T09:36:07.036Z,98167.69
2023-04-24T09:38:36.334Z,98176.69
2023-04-24T09:41:04.997Z,98174.47
2023-04-24T09:43:32.822Z,98178.47
2023-04-24T09:46:01.960Z,98172.53
2023-04-24T09:48:33.781Z,98186.84
2023-04-24T09:51:02.763Z,98191.38
2023-04-24T09:53:32.552Z,98202.47
2023-04-24T09:56:04.576Z,98196.78
2023-04-24T09:58:32.224Z,98202.88
2023-04-24T10:00:59.791Z,98197.22
2023-04-24T10:03:30.544Z,98211.72
2023-04-24T10:06:01.045Z,98213.72
2023-04-24T10:08:28.805Z,98212.44
2023-04-24T10:10:57.753Z,98209.25
2023-04-24T10:13:25.441Z,98209.38
2023-04-24T10:15:53.301Z,98220.50
2023-04-24T10:18:23.075Z,98207.91
2023-04-24T10:20:50.808Z,98220.59
2023-04-24T10:23:20.324Z,98232.31
2023-04-24T10:25:47.987Z,98231.69
2023-04-24T10:28:17.113Z,98236.69
2023-04-24T10:30:45.294Z,98256.63
2023-04-24T10:33:13.529Z,98262.56
2023-04-24T10:35:44.509Z,98274.25
2023-04-24T10:38:15.002Z,98275.59
2023-04-24T10:40:44.825Z,98273.25
2023-04-24T10:43:12.547Z,98273.34
2023-04-24T10:45:41.576Z,98280.59
2023-04-24T10:48:11.996Z,98279.75
2023-04-24T10:50:47.683Z,98284.94
2023-04-24T10:53:17.798Z,98287.09
2023-04-24T10:55:47.660Z,98308.50
2023-04-24T10:58:15.851Z,98310.00
2023-04-24T11:00:46.147Z,98308.72
2023-04-24T11:03:29.182Z,98310.38
2023-04-24T11:06:01.803Z,98318.94
2023-04-24T11:08:34.243Z,98335.47
2023-04-24T11:11:04.855Z,98331.38
2023-04-24T11:14:09.187Z,98337.06
2023-04-24T11:16:41.981Z,98336.63
2023-04-24T11:19:11.083Z,98330.44
2023-04-24T11:21:43.453Z,98337.31
2023-04-24T11:24:27.771Z,98323.97
2023-04-24T11:26:57.612Z,98326.69
2023-04-24T11:29:28.602Z,98324.28
2023-04-24T11:31:58.261Z,98317.44
2023-04-24T11:34:26.328Z,98319.66
2023-04-24T11:36:54.083Z,98317.00
2023-04-24T11:39:21.643Z,98314.25
2023-04-24T11:41:49.279Z,98308.88
2023-04-24T11:44:17.141Z,98308.78
2023-04-24T11:46:44.689Z,98303.13
2023-04-24T11:49:14.348Z,98308.56
2023-04-24T11:51:51.430Z,98306.03
2023-04-24T11:54:20.475Z,98305.66
2023-04-24T11:56:48.895Z,98307.66
2023-04-24T11:59:16.587Z,98319.03
2023-04-24T12:01:47.596Z,98333.53
2023-04-24T12:04:17.991Z,98326.66
2023-04-24T12:07:01.010Z,98319.41
2023-04-24T12:09:28.569Z,98323.22
2023-04-24T12:11:57.904Z,98325.84
2023-04-24T12:14:25.824Z,98339.72
2023-04-24T12:16:53.436Z,98346.59
2023-04-24T12:19:24.464Z,98335.13
2023-04-24T12:22:02.514Z,98336.56
2023-04-24T12:24:30.083Z,98332.44
2023-04-24T12:26:58.963Z,98336.13
2023-04-24T12:29:26.872Z,98341.41
2023-04-24T12:31:54.607Z,98346.13
2023-04-24T12:34:24.512Z,98342.38
2023-04-24T12:36:52.190Z,98339.78
2023-04-24T12:39:20.632Z,98345.53
2023-04-24T12:41:58.996Z,98327.53
2023-04-24T12:44:35.269Z,98337.59
2023-04-24T12:47:03.187Z,98342.25
2023-04-24T12:49:33.913Z,98341.31
2023-04-24T12:52:01.462Z,98339.38
2023-04-24T12:54:34.559Z,98340.97
2023-04-24T12:57:02.368Z,98339.97
2023-04-24T12:59:29.935Z,98345.38
2023-04-24T13:01:57.582Z,98339.44
2023-04-24T13:04:25.770Z,98336.72
2023-04-24T13:06:54.770Z,98345.41
2023-04-24T13:09:22.670Z,98340.97
2023-04-24T13:11:52.016Z,98341.16
2023-04-24T13:14:19.623Z,98347.63
2023-04-24T13:16:47.262Z,98337.28
2023-04-24T13:19:14.868Z,98350.00
2023-04-24T13:21:42.566Z,98347.16
2023-04-24T13:24:11.884Z,98345.38
2023-04-24T13:26:39.531Z,98340.38
2023-04-24T13:29:07.271Z,98359.69
2023-04-24T13:31:35.009Z,98349.78
2023-04-24T13:34:03.158Z,98352.41
2023-04-24T13:36:31.098Z,98364.50
2023-04-24T13:38:58.825Z,98352.72
2023-04-24T13:41:27.909Z,98367.84
2023-04-24T13:43:55.476Z,98358.56
2023-04-24T13:46:23.081Z,98353.97
2023-04-24T13:48:50.992Z,98369.13
2023-04-24T13:51:18.690Z,98362.88
2023-04-24T13:53:46.334Z,98362.66
2023-04-24T13:56:15.067Z,98368.25
2023-04-24T13:58:44.026Z,98365.09
2023-04-24T14:01:12.082Z,98357.78
2023-04-24T14:03:39.941Z,98363.50
2023-04-24T14:06:08.307Z,98360.19
2023-04-24T14:08:36.034Z,98361.59
2023-04-24T14:11:04.650Z,98368.88
2023-04-24T14:13:32.299Z,98362.31
2023-04-24T14:16:01.410Z,98353.84
2023-04-24T14:18:29.606Z,98368.56
2023-04-24T14:20:57.187Z,98361.72
2023-04-24T14:23:24.781Z,98361.31
2023-04-24T14:25:53.429Z,98367.97
2023-04-24T14:28:21.278Z,98356.28
2023-04-24T14:30:49.179Z,98359.66
2023-04-24T14:33:18.382Z,98363.81
2023-04-24T14:35:46.054Z,98365.06
2023-04-24T14:38:13.615Z,98355.09
2023-04-24T14:43:12.212Z,98356.91
2023-04-24T14:45:41.834Z,98361.16
2023-04-24T14:48:10.237Z,98364.97
2023-04-24T14:50:39.400Z,98355.31
2023-04-24T14:53:07.060Z,98359.22
2023-04-24T14:55:35.456Z,98363.13
2023-04-24T14:58:03.080Z,98356.00
2023-04-24T15:00:30.958Z,98352.88
2023-04-24T15:02:58.777Z,98344.13
2023-04-24T15:05:27.186Z,98345.94
2023-04-24T15:07:56.368Z,98344.06
2023-04-24T15:10:24.839Z,98345.13
2023-04-24T15:12:52.529Z,98345.25
2023-04-24T15:15:20.366Z,98344.75
2023-04-24T15:17:48.032Z,98345.25
2023-04-24T15:20:15.624Z,98348.69
2023-04-24T15:22:43.253Z,98358.41
2023-04-24T15:25:12.320Z,98354.06
2023-04-24T15:27:43.984Z,98360.25
2023-04-24T15:30:12.739Z,98344.75
2023-04-24T15:32:40.813Z,98356.72
2023-04-24T15:35:10.430Z,98357.44
2023-04-24T15:37:38.426Z,98347.53
2023-04-24T15:40:08.167Z,98352.72
2023-04-24T15:42:37.512Z,98356.56
2023-04-24T15:45:05.361Z,98359.66
2023-04-24T15:47:33.971Z,98365.38
2023-04-24T15:50:01.685Z,98358.41
2023-04-24T15:52:29.270Z,98357.75
2023-04-24T15:54:57.011Z,98371.28
2023-04-24T15:57:24.591Z,98357.34
2023-04-24T15:59:53.566Z,98359.66
2023-04-24T16:02:21.561Z,98357.56
2023-04-24T16:04:50.371Z,98357.56
2023-04-24T16:07:19.089Z,98360.00
2023-04-24T16:09:46.858Z,98363.81
2023-04-24T16:12:14.709Z,98355.41
2023-04-24T16:14:42.768Z,98353.31
2023-04-24T16:17:11.894Z,98356.28
2023-04-24T16:19:39.471Z,98364.22
2023-04-24T16:22:07.071Z,98367.56
2023-04-24T16:24:35.327Z,98371.97
2023-04-24T16:27:03.197Z,98372.53
2023-04-24T16:29:31.630Z,98374.94
2023-04-24T16:31:59.292Z,98370.91
2023-04-24T16:34:28.258Z,98378.34
2023-04-24T16:36:55.883Z,98377.09
2023-04-24T16:39:23.444Z,98391.53
2023-04-24T16:41:51.210Z,98389.25
2023-04-24T16:44:19.227Z,98391.66
2023-04-24T16:46:47.508Z,98390.13
2023-04-24T16:49:15.428Z,98395.78
2023-04-24T16:51:44.332Z,98407.31
2023-04-24T16:54:12.112Z,98415.09
2023-04-24T16:56:39.818Z,98423.38
2023-04-24T16:59:07.614Z,98414.50
2023-04-24T17:01:36.279Z,98406.03
2023-04-24T17:04:04.032Z,98400.25
2023-04-24T17:06:32.212Z,98391.75
2023-04-24T17:09:01.303Z,98400.47
2023-04-24T17:11:31.111Z,98400.53
2023-04-24T17:13:59.903Z,98410.56
2023-04-24T17:16:27.817Z,98404.41
2023-04-24T17:18:55.459Z,98409.03
2023-04-24T17:21:23.077Z,98411.09
2023-04-24T17:23:50.828Z,98415.19
2023-04-24T17:26:20.278Z,98408.97
2023-04-24T17:28:47.977Z,98415.94
2023-04-24T17:31:15.754Z,98413.63
2023-04-24T17:33:43.260Z,98416.78
2023-04-24T17:36:11.106Z,98416.78
2023-04-24T17:38:38.836Z,98416.34
2023-04-24T17:41:07.053Z,98423.06
2023-04-24T17:43:36.125Z,98415.41
2023-04-24T17:46:03.827Z,98423.56
2023-04-24T17:48:31.563Z,98409.28
2023-04-24T17:50:59.383Z,98419.66
2023-04-24T17:53:27.125Z,98419.41
2023-04-24T17:55:57.709Z,98418.38
2023-04-24T17:58:25.365Z,98419.91
2023-04-24T18:00:54.295Z,98420.41
2023-04-24T18:03:21.995Z,98425.25
2023-04-24T18:05:49.612Z,98418.44
2023-04-24T18:08:17.145Z,98418.25
2023-04-24T18:10:45.014Z,98428.69
2023-04-24T18:13:12.836Z,98430.25
2023-04-24T18:15:43.069Z,98434.63
2023-04-24T18:18:12.394Z,98442.84
2023-04-24T18:20:42.977Z,98446.31
2023-04-24T18:23:10.761Z,98432.50
2023-04-24T18:25:38.333Z,98450.81
2023-04-24T18:28:05.909Z,98445.22
2023-04-24T18:30:34.627Z,98448.25
2023-04-24T18:33:02.381Z,98450.97
2023-04-24T18:35:31.712Z,98452.81
2023-04-24T18:37:59.405Z,98450.97
2023-04-24T18:40:27.086Z,98444.63
2023-04-24T18:42:54.701Z,98450.75
2023-04-24T18:45:22.335Z,98450.44
2023-04-24T18:47:50.135Z,98441.22
2023-04-24T18:50:19.284Z,98451.28
2023-04-24T18:52:48.288Z,98449.97
2023-04-24T18:55:15.862Z,98449.75
2023-04-24T18:57:43.540Z,98446.09
2023-04-24T19:00:12.237Z,98452.16
2023-04-24T19:02:39.962Z,98439.69
2023-04-24T19:05:10.375Z,98458.41
2023-04-24T19:07:38.180Z,98449.44
2023-04-24T19:10:09.225Z,98457.78
2023-04-24T19:12:37.085Z,98458.88
2023-04-24T19:15:05.581Z,98466.84
2023-04-24T19:17:33.498Z,98455.63
2023-04-24T19:20:01.188Z,98464.38
2023-04-24T19:22:30.124Z,98467.22
2023-04-24T19:24:58.795Z,98475.41
2023-04-24T19:27:27.821Z,98474.50
2023-04-24T19:29:55.494Z,98472.41
2023-04-24T19:32:23.287Z,98481.06
2023-04-24T19:34:51.034Z,98480.44
2023-04-24T19:37:18.642Z,98485.94
2023-04-24T19:39:46.330Z,98492.91
2023-04-24T19:42:13.926Z,98488.50
2023-04-24T19:44:43.187Z,98491.34
2023-04-24T19:47:10.942Z,98495.53
2023-04-24T19:49:38.620Z,98489.72
2023-04-24T19:52:06.547Z,98486.00
2023-04-24T19:54:34.046Z,98484.38
2023-04-24T19:57:01.683Z,98487.03
2023-04-24T19:59:29.402Z,98483.09
2023-04-24T20:01:58.389Z,98485.09
2023-04-24T20:04:26.555Z,98490.03
2023-04-24T20:06:54.191Z,98487.16
2023-04-24T20:09:21.915Z,98486.53
2023-04-24T20:11:51.168Z,98489.09
2023-04-24T20:14:18.900Z,98481.50
2023-04-24T20:16:46.434Z,98490.94
2023-04-24T20:19:15.427Z,98483.22
2023-04-24T20:21:43.172Z,98485.47
2023-04-24T20:24:10.789Z,98480.13
2023-04-24T20:26:38.428Z,98485.09
2023-04-24T20:29:06.786Z,98479.75
2023-04-24T20:31:34.495Z,98481.84
2023-04-24T20:34:02.111Z,98477.06
2023-04-24T20:36:31.188Z,98472.72
2023-04-24T20:38:59.270Z,98474.88
2023-04-24T20:41:27.280Z,98482.06
2023-04-24T20:43:55.229Z,98475.50
2023-04-24T20:46:23.101Z,98480.91
2023-04-24T20:48:51.043Z,98486.31
2023-04-24T20:51:19.570Z,98479.44
2023-04-24T20:53:49.294Z,98474.56
2023-04-24T20:56:17.422Z,98472.78
2023-04-24T20:58:46.604Z,98476.44
2023-04-24T21:01:14.979Z,98474.41
2023-04-24T21:03:43.245Z,98474.72
2023-04-24T21:06:11.280Z,98473.78
2023-04-24T21:08:38.940Z,98472.25
2023-04-24T21:11:07.918Z,98468.75
2023-04-24T21:13:35.957Z,98471.63
2023-04-24T21:16:03.670Z,98476.81
2023-04-24T21:18:31.892Z,98477.31
2023-04-24T21:20:59.455Z,98476.69
2023-04-24T21:23:27.309Z,98478.63
2023-04-24T21:25:55.093Z,98478.44
2023-04-24T21:28:25.229Z,98471.19
2023-04-24T21:30:52.838Z,98468.28
2023-04-24T21:33:20.654Z,98479.66
2023-04-24T21:35:48.227Z,98471.91
2023-04-24T21:38:15.787Z,98473.13
2023-04-24T21:40:43.361Z,98468.56
2023-04-24T21:43:12.193Z,98464.16
2023-04-24T21:45:41.229Z,98463.56
2023-04-24T21:48:08.817Z,98462.78
2023-04-24T21:50:36.524Z,98461.75
2023-04-24T21:53:04.296Z,98459.03
2023-04-24T21:55:32.114Z,98467.47
2023-04-24T21:57:59.924Z,98466.13
2023-04-24T22:00:27.745Z,98460.59
2023-04-24T22:02:56.963Z,98457.41
2023-04-24T22:05:25.064Z,98463.28
2023-04-24T22:07:54.161Z,98471.09
2023-04-24T22:10:21.990Z,98465.13
2023-04-24T22:12:49.794Z,98464.63
2023-04-24T22:15:17.502Z,98463.91
2023-04-24T22:17:46.106Z,98446.75
2023-04-24T22:20:17.362Z,98458.38
2023-04-24T22:22:46.010Z,98448.50
2023-04-24T22:25:14.012Z,98447.59
2023-04-24T22:27:41.665Z,98451.22
2023-04-24T22:30:10.786Z,98447.78
2023-04-24T22:32:38.663Z,98453.59
2023-04-24T22:35:07.148Z,98449.78
2023-04-24T22:37:37.421Z,98448.47
2023-04-24T22:40:08.242Z,98446.72
2023-04-24T22:42:35.957Z,98444.72
2023-04-24T22:45:04.604Z,98439.28
2023-04-24T22:47:32.855Z,98434.50
2023-04-24T22:50:00.840Z,98438.69
2023-04-24T22:52:30.603Z,98437.56
2023-04-24T22:55:00.878Z,98438.00
2023-04-24T22:57:29.762Z,98440.88
2023-04-24T22:59:57.633Z,98436.81
2023-04-24T23:02:25.511Z,98430.72
2023-04-24T23:04:54.315Z,98430.66
2023-04-24T23:07:22.174Z,98438.25
2023-04-24T23:09:50.116Z,98427.84
2023-04-24T23:12:19.330Z,98430.25
2023-04-24T23:14:47.107Z,98431.31
2023-04-24T23:17:14.788Z,98439.44
2023-04-24T23:19:42.361Z,98432.38
2023-04-24T23:22:10.072Z,98439.25
2023-04-24T23:24:39.791Z,98437.75
2023-04-24T23:27:07.456Z,98436.69
2023-04-24T23:29:36.740Z,98427.38
2023-04-24T23:32:04.431Z,98435.78
2023-04-24T23:34:33.928Z,98431.91
2023-04-24T23:37:01.986Z,98429.66
2023-04-24T23:39:29.666Z,98433.16
2023-04-24T23:41:58.336Z,98426.34
2023-04-24T23:44:26.243Z,98432.78
2023-04-24T23:46:55.567Z,98429.47
2023-04-24T23:49:23.478Z,98424.44
2023-04-24T23:51:51.829Z,98425.75
2023-04-24T23:54:19.777Z,98425.88
2023-04-24T23:56:48.408Z,98420.72
2023-04-24T23:59:16.238Z,98416.25
